Terminal Aerodrome Forecast
Issued by NWS

Home | Current Version | Previous Version | Text Only | Print | Product List | Glossary On
Versions: 1 2 3 4 5 6 7 8 9 10 11 12 13 14
996
FTUS41 KBTV 041727
TAFMPV
TAF
KMPV 041727Z 0418/0518 00000KT P6SM BKN025
     FM042000 VRB03KT P6SM BKN050
     FM050900 00000KT P6SM VCSH OVC100
     FM051200 VRB03KT 1SM -SN BR OVC035=

USA.gov is the U.S. government's official web portal to all federal, state and local government web resources and services.